KLAA/LAA METAR and TAF weather

Enter ICAO airport designator
Station Type Date Time Source
KLAA METAR 2020/02/20 17:53 UTC NOAA

KLAA 201753Z AUTO 00000KT 10SM CLR M06/M11 A3067 RMK AO2 SLP425 60000 I6000 T10561106 11056 21150 51008


Station Type Date Time Source
KLAA Decoded METAR 2020/02/20 17:53 UTC NOAA

LAMAR MUNICIPAL AIRPORT, CO, United States (KLAA) 38-04N 102-41W 1119M
Feb 20, 2020 - 12:53 PM EST / 2020.02.20 1753 UTC
Wind: Calm:0
Visibility: 10 mile(s):0
Sky conditions: clear
Temperature: 21.9 F (-5.6 C)
Dew Point: 12.9 F (-10.6 C)
Relative Humidity: 67%
Pressure (altimeter): 30.67 in. Hg (1038 hPa)
Pressure tendency: 0.02 inches (0.8 hPa) higher than three hours ago
ob: KLAA 201753Z AUTO 00000KT 10SM CLR M06/M11 A3067 RMK AO2 SLP425 60000 I6000 T10561106 11056 21150 51008
cycle: 18

Station Type Date Time Source
KLAA TAF UTC NOAA

Error!

Example: see airport list